Aérodrome :
LOGIN :

S'inscrire | Disclaimer

   EN    FR    IT 

 










Légende :    VFR   VFR Marginal   IFR   IFR Intensif   IFR Très Intensif
Visi : 
Plafond : 
>= 8 km
>= 3000ft
5 à 8 km
1000 à 3000 ft
1500m à 5 km
500 à 1000 ft
800 à 1500m
200 à 500 ft
< 800m
< 200 ft
Symboles :   Orages  Brouillard  Fortes neiges  Fortes précipitations  Vent > 20 kt
SIGMETs :   Divers  Orages  Givrage  Turbulence  Onde Orograph.  Cendres Volcan.







- Altitude de l'aérodrome : 1585 ft
- Code IATA : SIR


LSGS - Sion

DERNIER METAR :
  • 202150Z AUTO 20004KT 160V220 9999 SCT100 21/14 Q1016

METARs EXPIRÉS :
  • 202120Z AUTO VRB02KT 9999 //////TCU 21/14 Q1015
  • 202050Z AUTO VRB03KT 9999 BKN120 SCT///CB 21/14 Q1015
  • 202020Z AUTO 26006KT 190V320 9999 VCTS FEW100 SCT///CB 21/14 Q1015 RETSRA
  • 201950Z AUTO 25017KT 9999 -TSRA BKN110 SCT///CB 21/15 Q1014

TAF TAF LSGS
Valide du 20 à 15h jusqu'au 21 à 00h UTC


201425Z 2015/2024 25015KT 9999 SCT080
BECMG 2017/2019 VRB03KT
Pas de NOTAMs connus pour ce terrain.



MET'MAP, la Météo Aéronautique d'un coup d'oeil ! - Copyright ORBIFLY Décembre 2007 - Disclaimer

ORBIFLY MET'MAP TEAM :

Programmation & Développement : Alexandra Zaïnal
Conception & Développement : Baudouin d'Aumeries
Co-Programmation & Développement : Marc-Olivier Méhu
Soutien technique & logistique : Manuel Goepfert

Contact : metmap@orbifly.com




SOURCES & CREDITS :

   NOAA